sensor_id;sensor_type;location;lat;lon;timestamp;pressure;altitude;pressure_sealevel;temperature;humidity
63556;BME280;49700;48.072;7.800;2023-12-20T00:01:06;99763.72;;;7.82;nan
63556;BME280;49700;48.072;7.800;2023-12-20T00:03:35;99771.56;;;7.82;nan
63556;BME280;49700;48.072;7.800;2023-12-20T00:06:00;99766.03;;;7.88;nan
63556;BME280;49700;48.072;7.800;2023-12-20T00:08:25;99759.06;;;7.89;nan
63556;BME280;49700;48.072;7.800;2023-12-20T00:10:51;99746.72;;;7.91;nan
63556;BME280;49700;48.072;7.800;2023-12-20T00:13:16;99751.13;;;7.90;nan
63556;BME280;49700;48.072;7.800;2023-12-20T00:15:42;99745.22;;;7.87;nan
63556;BME280;49700;48.072;7.800;2023-12-20T00:18:10;99739.03;;;7.88;nan
63556;BME280;49700;48.072;7.800;2023-12-20T00:20:35;99734.75;;;7.87;nan
63556;BME280;49700;48.072;7.800;2023-12-20T00:23:01;99739.81;;;7.90;nan
63556;BME280;49700;48.072;7.800;2023-12-20T00:25:28;99742.50;;;7.88;nan
63556;BME280;49700;48.072;7.800;2023-12-20T00:27:53;99745.22;;;7.87;nan
63556;BME280;49700;48.072;7.800;2023-12-20T00:30:19;99752.28;;;7.85;nan
63556;BME280;49700;48.072;7.800;2023-12-20T00:32:44;99770.75;;;7.82;nan
63556;BME280;49700;48.072;7.800;2023-12-20T00:35:15;99770.75;;;7.82;nan
63556;BME280;49700;48.072;7.800;2023-12-20T00:37:42;99757.81;;;7.79;nan
63556;BME280;49700;48.072;7.800;2023-12-20T00:40:08;99750.88;;;7.78;nan
63556;BME280;49700;48.072;7.800;2023-12-20T00:42:34;99740.56;;;7.74;nan
63556;BME280;49700;48.072;7.800;2023-12-20T00:45:00;99737.50;;;7.66;nan
63556;BME280;49700;48.072;7.800;2023-12-20T00:47:25;99742.19;;;7.60;nan
63556;BME280;49700;48.072;7.800;2023-12-20T00:49:51;99752.97;;;7.53;nan
63556;BME280;49700;48.072;7.800;2023-12-20T00:52:17;99749.78;;;7.47;nan
63556;BME280;49700;48.072;7.800;2023-12-20T00:54:43;99746.47;;;7.43;nan
63556;BME280;49700;48.072;7.800;2023-12-20T00:57:09;99741.63;;;7.36;nan
63556;BME280;49700;48.072;7.800;2023-12-20T00:59:34;99737.44;;;7.31;nan
63556;BME280;49700;48.072;7.800;2023-12-20T01:01:59;99741.16;;;7.27;nan
63556;BME280;49700;48.072;7.800;2023-12-20T01:04:25;99750.91;;;7.24;nan
63556;BME280;49700;48.072;7.800;2023-12-20T01:06:50;99755.19;;;7.25;nan
63556;BME280;49700;48.072;7.800;2023-12-20T01:09:16;99742.44;;;7.19;nan
63556;BME280;49700;48.072;7.800;2023-12-20T01:11:41;99745.09;;;7.17;nan
63556;BME280;49700;48.072;7.800;2023-12-20T01:14:06;99742.59;;;7.16;nan
63556;BME280;49700;48.072;7.800;2023-12-20T01:16:32;99746.94;;;7.15;nan
63556;BME280;49700;48.072;7.800;2023-12-20T01:18:57;99749.63;;;7.14;nan
63556;BME280;49700;48.072;7.800;2023-12-20T01:21:23;99740.03;;;7.14;nan
63556;BME280;49700;48.072;7.800;2023-12-20T01:23:49;99740.81;;;7.16;nan
63556;BME280;49700;48.072;7.800;2023-12-20T01:26:14;99746.88;;;7.17;nan
63556;BME280;49700;48.072;7.800;2023-12-20T01:28:40;99743.50;;;7.15;nan
63556;BME280;49700;48.072;7.800;2023-12-20T01:31:05;99739.97;;;7.16;nan
63556;BME280;49700;48.072;7.800;2023-12-20T01:33:31;99740.81;;;7.16;nan
63556;BME280;49700;48.072;7.800;2023-12-20T01:35:56;99746.03;;;7.16;nan
63556;BME280;49700;48.072;7.800;2023-12-20T01:38:22;99746.03;;;7.16;nan
63556;BME280;49700;48.072;7.800;2023-12-20T01:40:47;99742.66;;;7.14;nan
63556;BME280;49700;48.072;7.800;2023-12-20T01:43:13;99752.94;;;7.17;nan
63556;BME280;49700;48.072;7.800;2023-12-20T01:45:38;99751.25;;;7.16;nan
63556;BME280;49700;48.072;7.800;2023-12-20T01:48:08;99745.09;;;7.17;nan
63556;BME280;49700;48.072;7.800;2023-12-20T01:50:36;99751.25;;;7.16;nan
63556;BME280;49700;48.072;7.800;2023-12-20T01:53:02;99752.00;;;7.18;nan
63556;BME280;49700;48.072;7.800;2023-12-20T01:55:31;99748.50;;;7.19;nan
63556;BME280;49700;48.072;7.800;2023-12-20T01:57:58;99753.72;;;7.19;nan
63556;BME280;49700;48.072;7.800;2023-12-20T02:00:25;99747.66;;;7.19;nan
63556;BME280;49700;48.072;7.800;2023-12-20T02:02:53;99748.56;;;7.18;nan
63556;BME280;49700;48.072;7.800;2023-12-20T02:05:28;99749.50;;;7.17;nan
63556;BME280;49700;48.072;7.800;2023-12-20T02:07:54;99744.31;;;7.15;nan
63556;BME280;49700;48.072;7.800;2023-12-20T02:10:22;99756.53;;;7.15;nan
63556;BME280;49700;48.072;7.800;2023-12-20T02:12:51;99754.72;;;7.17;nan
63556;BME280;49700;48.072;7.800;2023-12-20T02:15:17;99749.56;;;7.15;nan
63556;BME280;49700;48.072;7.800;2023-12-20T02:17:43;99744.31;;;7.15;nan
63556;BME280;49700;48.072;7.800;2023-12-20T02:20:09;99743.56;;;7.13;nan
63556;BME280;49700;48.072;7.800;2023-12-20T02:22:35;99746.09;;;7.15;nan
63556;BME280;49700;48.072;7.800;2023-12-20T02:25:01;99745.25;;;7.14;nan
63556;BME280;49700;48.072;7.800;2023-12-20T02:27:27;99741.03;;;7.12;nan
63556;BME280;49700;48.072;7.800;2023-12-20T02:29:53;99732.19;;;7.14;nan
63556;BME280;49700;48.072;7.800;2023-12-20T02:32:18;99733.19;;;7.12;nan
63556;BME280;49700;48.072;7.800;2023-12-20T02:34:44;99737.47;;;7.13;nan
63556;BME280;49700;48.072;7.800;2023-12-20T02:37:10;99733.13;;;7.13;nan
63556;BME280;49700;48.072;7.800;2023-12-20T02:39:36;99731.41;;;7.12;nan
63556;BME280;49700;48.072;7.800;2023-12-20T02:42:01;99736.63;;;7.12;nan
63556;BME280;49700;48.072;7.800;2023-12-20T02:44:27;99736.63;;;7.12;nan
63556;BME280;49700;48.072;7.800;2023-12-20T02:46:52;99731.41;;;7.12;nan
63556;BME280;49700;48.072;7.800;2023-12-20T02:49:21;99728.81;;;7.12;nan
63556;BME280;49700;48.072;7.800;2023-12-20T02:51:47;99736.63;;;7.12;nan
63556;BME280;49700;48.072;7.800;2023-12-20T02:54:13;99726.19;;;7.12;nan
63556;BME280;49700;48.072;7.800;2023-12-20T02:56:38;99742.78;;;7.11;nan
63556;BME280;49700;48.072;7.800;2023-12-20T02:59:04;99742.84;;;7.09;nan
63556;BME280;49700;48.072;7.800;2023-12-20T03:01:34;99743.69;;;7.10;nan
63556;BME280;49700;48.072;7.800;2023-12-20T03:04:00;99754.09;;;7.12;nan
63556;BME280;49700;48.072;7.800;2023-12-20T03:06:25;99746.41;;;7.08;nan
63556;BME280;49700;48.072;7.800;2023-12-20T03:08:54;99752.47;;;7.09;nan
63556;BME280;49700;48.072;7.800;2023-12-20T03:11:19;99754.16;;;7.10;nan
63556;BME280;49700;48.072;7.800;2023-12-20T03:13:44;99745.41;;;7.11;nan
63556;BME280;49700;48.072;7.800;2023-12-20T03:16:11;99749.84;;;7.09;nan
63556;BME280;49700;48.072;7.800;2023-12-20T03:18:40;99752.47;;;7.09;nan
63556;BME280;49700;48.072;7.800;2023-12-20T03:21:05;99750.78;;;7.08;nan
63556;BME280;49700;48.072;7.800;2023-12-20T03:23:31;99756.91;;;7.07;nan
63556;BME280;49700;48.072;7.800;2023-12-20T03:25:58;99757.00;;;7.05;nan
63556;BME280;49700;48.072;7.800;2023-12-20T03:28:23;99762.13;;;7.07;nan
63556;BME280;49700;48.072;7.800;2023-12-20T03:30:49;99766.44;;;7.08;nan
63556;BME280;49700;48.072;7.800;2023-12-20T03:33:17;99770.75;;;7.09;nan
63556;BME280;49700;48.072;7.800;2023-12-20T03:35:43;99772.50;;;7.08;nan
63556;BME280;49700;48.072;7.800;2023-12-20T03:38:08;99771.69;;;7.08;nan
63556;BME280;49700;48.072;7.800;2023-12-20T03:40:34;99779.50;;;7.08;nan
63556;BME280;49700;48.072;7.800;2023-12-20T03:43:00;99772.81;;;7.02;nan
63556;BME280;49700;48.072;7.800;2023-12-20T03:45:29;99769.97;;;7.07;nan
63556;BME280;49700;48.072;7.800;2023-12-20T03:47:54;99774.28;;;7.08;nan
63556;BME280;49700;48.072;7.800;2023-12-20T03:50:25;99771.69;;;7.08;nan
63556;BME280;49700;48.072;7.800;2023-12-20T03:52:50;99775.13;;;7.08;nan
63556;BME280;49700;48.072;7.800;2023-12-20T03:55:16;99776.91;;;7.08;nan
63556;BME280;49700;48.072;7.800;2023-12-20T03:57:41;99776.13;;;7.06;nan
63556;BME280;49700;48.072;7.800;2023-12-20T04:00:07;99781.34;;;7.06;nan
63556;BME280;49700;48.072;7.800;2023-12-20T04:02:42;99779.56;;;7.06;nan
63556;BME280;49700;48.072;7.800;2023-12-20T04:05:08;99776.13;;;7.06;nan
63556;BME280;49700;48.072;7.800;2023-12-20T04:07:35;99773.50;;;7.06;nan
63556;BME280;49700;48.072;7.800;2023-12-20T04:10:00;99773.50;;;7.06;nan
63556;BME280;49700;48.072;7.800;2023-12-20T04:12:27;99767.34;;;7.07;nan
63556;BME280;49700;48.072;7.800;2023-12-20T04:14:53;99764.69;;;7.08;nan
63556;BME280;49700;48.072;7.800;2023-12-20T04:17:18;99767.19;;;7.10;nan
63556;BME280;49700;48.072;7.800;2023-12-20T04:19:44;99765.47;;;7.11;nan
63556;BME280;49700;48.072;7.800;2023-12-20T04:22:09;99782.03;;;7.09;nan
63556;BME280;49700;48.072;7.800;2023-12-20T04:24:35;99793.25;;;7.12;nan
63556;BME280;49700;48.072;7.800;2023-12-20T04:27:01;99791.59;;;7.11;nan
63556;BME280;49700;48.072;7.800;2023-12-20T04:29:26;99791.59;;;7.11;nan
63556;BME280;49700;48.072;7.800;2023-12-20T04:31:52;99802.88;;;7.11;nan
63556;BME280;49700;48.072;7.800;2023-12-20T04:34:17;99804.56;;;7.12;nan
63556;BME280;49700;48.072;7.800;2023-12-20T04:36:43;99798.44;;;7.13;nan
63556;BME280;49700;48.072;7.800;2023-12-20T04:39:11;99805.41;;;7.13;nan
63556;BME280;49700;48.072;7.800;2023-12-20T04:41:37;99804.41;;;7.15;nan
63556;BME280;49700;48.072;7.800;2023-12-20T04:44:02;99807.03;;;7.15;nan
63556;BME280;49700;48.072;7.800;2023-12-20T04:46:28;99811.34;;;7.16;nan
63556;BME280;49700;48.072;7.800;2023-12-20T04:48:53;99811.34;;;7.16;nan
63556;BME280;49700;48.072;7.800;2023-12-20T04:51:18;99812.19;;;7.17;nan
63556;BME280;49700;48.072;7.800;2023-12-20T04:53:44;99802.56;;;7.17;nan
63556;BME280;49700;48.072;7.800;2023-12-20T04:56:09;99804.25;;;7.18;nan
63556;BME280;49700;48.072;7.800;2023-12-20T04:58:34;99812.09;;;7.18;nan
63556;BME280;49700;48.072;7.800;2023-12-20T05:01:01;99822.50;;;7.20;nan
63556;BME280;49700;48.072;7.800;2023-12-20T05:03:27;99816.44;;;7.19;nan
63556;BME280;49700;48.072;7.800;2023-12-20T05:05:52;99802.44;;;7.20;nan
63556;BME280;49700;48.072;7.800;2023-12-20T05:08:17;99807.66;;;7.20;nan
63556;BME280;49700;48.072;7.800;2023-12-20T05:10:43;99809.38;;;7.21;nan
63556;BME280;49700;48.072;7.800;2023-12-20T05:13:08;99823.19;;;7.23;nan
63556;BME280;49700;48.072;7.800;2023-12-20T05:15:33;99826.66;;;7.24;nan
63556;BME280;49700;48.072;7.800;2023-12-20T05:17:59;99825.75;;;7.25;nan
63556;BME280;49700;48.072;7.800;2023-12-20T05:20:24;99823.97;;;7.25;nan
63556;BME280;49700;48.072;7.800;2023-12-20T05:22:50;99830.13;;;7.24;nan
63556;BME280;49700;48.072;7.800;2023-12-20T05:25:15;99830.03;;;7.26;nan
63556;BME280;49700;48.072;7.800;2023-12-20T05:27:41;99832.66;;;7.26;nan
63556;BME280;49700;48.072;7.800;2023-12-20T05:30:06;99838.88;;;7.23;nan
63556;BME280;49700;48.072;7.800;2023-12-20T05:32:32;99828.41;;;7.23;nan
63556;BME280;49700;48.072;7.800;2023-12-20T05:34:57;99834.56;;;7.22;nan
63556;BME280;49700;48.072;7.800;2023-12-20T05:37:23;99833.63;;;7.23;nan
63556;BME280;49700;48.072;7.800;2023-12-20T05:39:48;99835.34;;;7.24;nan
63556;BME280;49700;48.072;7.800;2023-12-20T05:42:13;99846.66;;;7.25;nan
63556;BME280;49700;48.072;7.800;2023-12-20T05:44:39;99850.19;;;7.24;nan
63556;BME280;49700;48.072;7.800;2023-12-20T05:47:04;99846.66;;;7.25;nan
63556;BME280;49700;48.072;7.800;2023-12-20T05:49:30;99852.72;;;7.25;nan
63556;BME280;49700;48.072;7.800;2023-12-20T05:51:55;99849.19;;;7.26;nan
63556;BME280;49700;48.072;7.800;2023-12-20T05:54:21;99856.16;;;7.26;nan
63556;BME280;49700;48.072;7.800;2023-12-20T05:56:47;99853.56;;;7.26;nan
63556;BME280;49700;48.072;7.800;2023-12-20T05:59:12;99854.44;;;7.26;nan
63556;BME280;49700;48.072;7.800;2023-12-20T06:01:37;99864.00;;;7.26;nan
63556;BME280;49700;48.072;7.800;2023-12-20T06:04:03;99863.09;;;7.27;nan
63556;BME280;49700;48.072;7.800;2023-12-20T06:06:29;99864.88;;;7.26;nan
63556;BME280;49700;48.072;7.800;2023-12-20T06:08:55;99867.41;;;7.28;nan
63556;BME280;49700;48.072;7.800;2023-12-20T06:11:21;99865.63;;;7.28;nan
63556;BME280;49700;48.072;7.800;2023-12-20T06:13:46;99873.47;;;7.28;nan
63556;BME280;49700;48.072;7.800;2023-12-20T06:16:11;99874.41;;;7.27;nan
63556;BME280;49700;48.072;7.800;2023-12-20T06:18:37;99872.56;;;7.29;nan
63556;BME280;49700;48.072;7.800;2023-12-20T06:21:03;99876.09;;;7.28;nan
63556;BME280;49700;48.072;7.800;2023-12-20T06:23:28;99882.16;;;7.29;nan
63556;BME280;49700;48.072;7.800;2023-12-20T06:25:53;99885.63;;;7.29;nan
63556;BME280;49700;48.072;7.800;2023-12-20T06:28:19;99878.63;;;7.30;nan
63556;BME280;49700;48.072;7.800;2023-12-20T06:30:44;99883.03;;;7.29;nan
63556;BME280;49700;48.072;7.800;2023-12-20T06:33:12;99879.53;;;7.29;nan
63556;BME280;49700;48.072;7.800;2023-12-20T06:35:38;99887.38;;;7.29;nan
63556;BME280;49700;48.072;7.800;2023-12-20T06:38:04;99895.22;;;7.29;nan
63556;BME280;49700;48.072;7.800;2023-12-20T06:40:29;99891.75;;;7.28;nan
63556;BME280;49700;48.072;7.800;2023-12-20T06:42:55;99896.09;;;7.29;nan
63556;BME280;49700;48.072;7.800;2023-12-20T06:45:20;99892.59;;;7.29;nan
63556;BME280;49700;48.072;7.800;2023-12-20T06:47:45;99896.09;;;7.29;nan
63556;BME280;49700;48.072;7.800;2023-12-20T06:50:11;99896.94;;;7.30;nan
63556;BME280;49700;48.072;7.800;2023-12-20T06:52:36;99910.84;;;7.30;nan
63556;BME280;49700;48.072;7.800;2023-12-20T06:55:02;99903.13;;;7.27;nan
63556;BME280;49700;48.072;7.800;2023-12-20T06:57:29;99910.97;;;7.27;nan
63556;BME280;49700;48.072;7.800;2023-12-20T06:59:54;99910.03;;;7.28;nan
63556;BME280;49700;48.072;7.800;2023-12-20T07:02:20;99914.38;;;7.29;nan
63556;BME280;49700;48.072;7.800;2023-12-20T07:04:46;99915.22;;;7.30;nan
63556;BME280;49700;48.072;7.800;2023-12-20T07:07:11;99911.75;;;7.29;nan
63556;BME280;49700;48.072;7.800;2023-12-20T07:09:37;99920.50;;;7.28;nan
63556;BME280;49700;48.072;7.800;2023-12-20T07:12:04;99918.81;;;7.27;nan
63556;BME280;49700;48.072;7.800;2023-12-20T07:14:29;99924.97;;;7.26;nan
63556;BME280;49700;48.072;7.800;2023-12-20T07:16:54;99936.19;;;7.28;nan
63556;BME280;49700;48.072;7.800;2023-12-20T07:19:20;99936.19;;;7.28;nan
63556;BME280;49700;48.072;7.800;2023-12-20T07:21:45;99938.78;;;7.28;nan
63556;BME280;49700;48.072;7.800;2023-12-20T07:24:10;99952.78;;;7.27;nan
63556;BME280;49700;48.072;7.800;2023-12-20T07:26:36;99956.38;;;7.25;nan
63556;BME280;49700;48.072;7.800;2023-12-20T07:29:03;99952.97;;;7.23;nan
63556;BME280;49700;48.072;7.800;2023-12-20T07:31:29;99946.06;;;7.22;nan
63556;BME280;49700;48.072;7.800;2023-12-20T07:33:54;99951.28;;;7.22;nan
63556;BME280;49700;48.072;7.800;2023-12-20T07:36:20;99963.56;;;7.20;nan
63556;BME280;49700;48.072;7.800;2023-12-20T07:38:46;99974.16;;;7.17;nan
63556;BME280;49700;48.072;7.800;2023-12-20T07:41:12;99973.38;;;7.15;nan
63556;BME280;49700;48.072;7.800;2023-12-20T07:43:38;99976.81;;;7.15;nan
63556;BME280;49700;48.072;7.800;2023-12-20T07:46:05;99982.03;;;7.15;nan
63556;BME280;49700;48.072;7.800;2023-12-20T07:48:30;99982.97;;;7.14;nan
63556;BME280;49700;48.072;7.800;2023-12-20T07:50:56;99982.97;;;7.14;nan
63556;BME280;49700;48.072;7.800;2023-12-20T07:53:21;99985.59;;;7.14;nan
63556;BME280;49700;48.072;7.800;2023-12-20T07:55:46;99989.03;;;7.15;nan
63556;BME280;49700;48.072;7.800;2023-12-20T07:58:12;99982.97;;;7.14;nan
63556;BME280;49700;48.072;7.800;2023-12-20T08:00:37;99987.22;;;7.17;nan
63556;BME280;49700;48.072;7.800;2023-12-20T08:03:03;99992.34;;;7.18;nan
63556;BME280;49700;48.072;7.800;2023-12-20T08:05:28;99978.41;;;7.19;nan
63556;BME280;49700;48.072;7.800;2023-12-20T08:07:54;99979.19;;;7.21;nan
63556;BME280;49700;48.072;7.800;2023-12-20T08:10:19;99987.91;;;7.20;nan
63556;BME280;49700;48.072;7.800;2023-12-20T08:12:45;99995.72;;;7.22;nan
63556;BME280;49700;48.072;7.800;2023-12-20T08:15:10;99987.78;;;7.23;nan
63556;BME280;49700;48.072;7.800;2023-12-20T08:17:35;99999.03;;;7.25;nan
63556;BME280;49700;48.072;7.800;2023-12-20T08:20:01;99996.28;;;7.28;nan
63556;BME280;49700;48.072;7.800;2023-12-20T08:22:26;100001.38;;;7.31;nan
63556;BME280;49700;48.072;7.800;2023-12-20T08:24:52;99999.47;;;7.35;nan
63556;BME280;49700;48.072;7.800;2023-12-20T08:27:17;99995.81;;;7.39;nan
63556;BME280;49700;48.072;7.800;2023-12-20T08:29:44;100003.63;;;7.39;nan
63556;BME280;49700;48.072;7.800;2023-12-20T08:32:10;100007.88;;;7.42;nan
63556;BME280;49700;48.072;7.800;2023-12-20T08:34:35;100008.81;;;7.41;nan
63556;BME280;49700;48.072;7.800;2023-12-20T08:37:00;100013.97;;;7.42;nan
63556;BME280;49700;48.072;7.800;2023-12-20T08:39:26;100013.06;;;7.43;nan
63556;BME280;49700;48.072;7.800;2023-12-20T08:41:51;100021.78;;;7.42;nan
63556;BME280;49700;48.072;7.800;2023-12-20T08:50:38;100027.03;;;7.42;nan
63556;BME280;49700;48.072;7.800;2023-12-20T08:53:04;100030.50;;;7.43;nan
63556;BME280;49700;48.072;7.800;2023-12-20T08:55:29;100040.03;;;7.44;nan
63556;BME280;49700;48.072;7.800;2023-12-20T08:57:56;100043.44;;;7.46;nan
63556;BME280;49700;48.072;7.800;2023-12-20T09:00:21;100044.16;;;7.49;nan
63556;BME280;49700;48.072;7.800;2023-12-20T09:02:49;100044.16;;;7.49;nan
63556;BME280;49700;48.072;7.800;2023-12-20T09:05:15;100050.22;;;7.50;nan
63556;BME280;49700;48.072;7.800;2023-12-20T09:07:40;100047.47;;;7.53;nan
63556;BME280;49700;48.072;7.800;2023-12-20T09:10:06;100051.78;;;7.54;nan
63556;BME280;49700;48.072;7.800;2023-12-20T09:12:31;100059.63;;;7.54;nan
63556;BME280;49700;48.072;7.800;2023-12-20T09:14:57;100062.25;;;7.54;nan
63556;BME280;49700;48.072;7.800;2023-12-20T09:17:22;100062.16;;;7.56;nan
63556;BME280;49700;48.072;7.800;2023-12-20T09:19:48;100070.00;;;7.56;nan
63556;BME280;49700;48.072;7.800;2023-12-20T09:22:13;100067.47;;;7.54;nan
63556;BME280;49700;48.072;7.800;2023-12-20T09:24:39;100077.09;;;7.53;nan
63556;BME280;49700;48.072;7.800;2023-12-20T09:27:05;100087.53;;;7.53;nan
63556;BME280;49700;48.072;7.800;2023-12-20T09:29:31;100081.44;;;7.53;nan
63556;BME280;49700;48.072;7.800;2023-12-20T09:31:56;100081.44;;;7.53;nan
63556;BME280;49700;48.072;7.800;2023-12-20T09:34:23;100082.22;;;7.55;nan
63556;BME280;49700;48.072;7.800;2023-12-20T09:36:48;100083.03;;;7.57;nan
63556;BME280;49700;48.072;7.800;2023-12-20T09:39:14;100080.97;;;7.64;nan
63556;BME280;49700;48.072;7.800;2023-12-20T09:41:43;100069.28;;;7.72;nan
63556;BME280;49700;48.072;7.800;2023-12-20T09:44:14;100077.63;;;7.81;nan
63556;BME280;49700;48.072;7.800;2023-12-20T09:46:43;100090.44;;;7.87;nan
63556;BME280;49700;48.072;7.800;2023-12-20T09:49:13;100092.13;;;8.26;nan
63556;BME280;49700;48.072;7.800;2023-12-20T09:51:39;100081.72;;;9.33;nan
63556;BME280;49700;48.072;7.800;2023-12-20T09:54:06;100080.78;;;10.50;nan
63556;BME280;49700;48.072;7.800;2023-12-20T09:56:35;100070.00;;;10.86;nan
63556;BME280;49700;48.072;7.800;2023-12-20T09:59:00;100066.38;;;10.73;nan
63556;BME280;49700;48.072;7.800;2023-12-20T10:01:27;100057.84;;;10.37;nan
63556;BME280;49700;48.072;7.800;2023-12-20T10:03:54;100055.47;;;10.33;nan
63556;BME280;49700;48.072;7.800;2023-12-20T10:06:21;100060.38;;;11.01;nan
63556;BME280;49700;48.072;7.800;2023-12-20T10:08:50;100054.66;;;11.67;nan
63556;BME280;49700;48.072;7.800;2023-12-20T10:11:18;100052.41;;;11.61;nan
63556;BME280;49700;48.072;7.800;2023-12-20T10:13:47;100049.03;;;11.59;nan
63556;BME280;49700;48.072;7.800;2023-12-20T10:16:13;100051.94;;;11.69;nan
63556;BME280;49700;48.072;7.800;2023-12-20T10:18:39;100051.00;;;11.70;nan
63556;BME280;49700;48.072;7.800;2023-12-20T10:21:05;100049.94;;;11.58;nan
63556;BME280;49700;48.072;7.800;2023-12-20T10:23:37;100055.19;;;11.29;nan
63556;BME280;49700;48.072;7.800;2023-12-20T10:26:06;100056.56;;;10.91;nan
63556;BME280;49700;48.072;7.800;2023-12-20T10:28:36;100043.00;;;10.52;nan
63556;BME280;49700;48.072;7.800;2023-12-20T10:31:02;100041.13;;;10.23;nan
63556;BME280;49700;48.072;7.800;2023-12-20T10:33:30;100042.72;;;9.93;nan
63556;BME280;49700;48.072;7.800;2023-12-20T10:35:57;100038.03;;;9.67;nan
63556;BME280;49700;48.072;7.800;2023-12-20T10:38:23;100035.59;;;9.46;nan
63556;BME280;49700;48.072;7.800;2023-12-20T10:40:54;100034.47;;;9.35;nan
63556;BME280;49700;48.072;7.800;2023-12-20T10:43:21;100028.78;;;9.26;nan
63556;BME280;49700;48.072;7.800;2023-12-20T10:45:50;100038.81;;;9.18;nan
63556;BME280;49700;48.072;7.800;2023-12-20T10:48:35;100044.59;;;9.07;nan
63556;BME280;49700;48.072;7.800;2023-12-20T10:51:09;100036.41;;;8.96;nan
63556;BME280;49700;48.072;7.800;2023-12-20T10:53:39;100046.03;;;8.96;nan
63556;BME280;49700;48.072;7.800;2023-12-20T10:56:08;100050.22;;;9.00;nan
63556;BME280;49700;48.072;7.800;2023-12-20T10:58:38;100034.19;;;9.06;nan
63556;BME280;49700;48.072;7.800;2023-12-20T11:01:08;100033.19;;;9.08;nan
63556;BME280;49700;48.072;7.800;2023-12-20T11:03:35;100031.34;;;9.11;nan
63556;BME280;49700;48.072;7.800;2023-12-20T11:06:09;100028.94;;;9.06;nan
63556;BME280;49700;48.072;7.800;2023-12-20T11:11:08;100037.13;;;9.00;nan
63556;BME280;49700;48.072;7.800;2023-12-20T11:13:41;100027.47;;;9.00;nan
63556;BME280;49700;48.072;7.800;2023-12-20T11:16:10;100018.94;;;8.97;nan
63556;BME280;49700;48.072;7.800;2023-12-20T11:18:36;100017.94;;;8.99;nan
63556;BME280;49700;48.072;7.800;2023-12-20T11:21:05;100015.16;;;9.02;nan
63556;BME280;49700;48.072;7.800;2023-12-20T11:23:32;100021.84;;;9.08;nan
63556;BME280;49700;48.072;7.800;2023-12-20T11:25:59;100019.84;;;9.13;nan
63556;BME280;49700;48.072;7.800;2023-12-20T11:28:26;100024.84;;;9.18;nan
63556;BME280;49700;48.072;7.800;2023-12-20T11:30:54;100024.53;;;9.24;nan
63556;BME280;49700;48.072;7.800;2023-12-20T11:33:25;100024.06;;;9.33;nan
63556;BME280;49700;48.072;7.800;2023-12-20T11:35:51;100029.13;;;9.36;nan
63556;BME280;49700;48.072;7.800;2023-12-20T11:38:20;100017.88;;;9.34;nan
63556;BME280;49700;48.072;7.800;2023-12-20T11:40:48;100012.78;;;9.31;nan
63556;BME280;49700;48.072;7.800;2023-12-20T11:43:42;100016.41;;;9.28;nan
63556;BME280;49700;48.072;7.800;2023-12-20T11:46:44;100005.88;;;9.30;nan
63556;BME280;49700;48.072;7.800;2023-12-20T11:49:09;100005.03;;;9.29;nan
63556;BME280;49700;48.072;7.800;2023-12-20T11:51:34;100005.94;;;9.28;nan
63556;BME280;49700;48.072;7.800;2023-12-20T11:54:00;100002.31;;;9.31;nan
63556;BME280;49700;48.072;7.800;2023-12-20T11:56:25;99998.78;;;9.32;nan
63556;BME280;49700;48.072;7.800;2023-12-20T11:58:51;100000.69;;;9.28;nan
63556;BME280;49700;48.072;7.800;2023-12-20T12:01:16;100007.88;;;9.25;nan
63556;BME280;49700;48.072;7.800;2023-12-20T12:03:42;100000.19;;;9.22;nan
63556;BME280;49700;48.072;7.800;2023-12-20T12:06:10;100000.84;;;9.25;nan
63556;BME280;49700;48.072;7.800;2023-12-20T12:08:35;99999.16;;;9.24;nan
63556;BME280;49700;48.072;7.800;2023-12-20T12:11:02;99994.84;;;9.23;nan
63556;BME280;49700;48.072;7.800;2023-12-20T12:13:27;99996.63;;;9.23;nan
63556;BME280;49700;48.072;7.800;2023-12-20T12:15:56;99997.72;;;9.19;nan
63556;BME280;49700;48.072;7.800;2023-12-20T12:18:21;99987.47;;;9.14;nan
63556;BME280;49700;48.072;7.800;2023-12-20T12:20:47;99984.16;;;9.11;nan
63556;BME280;49700;48.072;7.800;2023-12-20T12:23:12;99989.56;;;9.07;nan
63556;BME280;49700;48.072;7.800;2023-12-20T12:25:38;99989.84;;;9.01;nan
63556;BME280;49700;48.072;7.800;2023-12-20T12:28:05;99992.81;;;8.95;nan
63556;BME280;49700;48.072;7.800;2023-12-20T12:30:30;99988.66;;;8.91;nan
63556;BME280;49700;48.072;7.800;2023-12-20T12:32:56;100004.44;;;8.90;nan
63556;BME280;49700;48.072;7.800;2023-12-20T12:35:23;100006.28;;;8.88;nan
63556;BME280;49700;48.072;7.800;2023-12-20T12:37:48;100003.75;;;8.86;nan
63556;BME280;49700;48.072;7.800;2023-12-20T12:40:17;100002.97;;;8.84;nan
63556;BME280;49700;48.072;7.800;2023-12-20T12:42:44;99998.75;;;8.81;nan
63556;BME280;49700;48.072;7.800;2023-12-20T12:45:11;100006.75;;;8.78;nan
63556;BME280;49700;48.072;7.800;2023-12-20T12:47:42;100007.59;;;8.79;nan
63556;BME280;49700;48.072;7.800;2023-12-20T12:50:08;100012.06;;;8.77;nan
63556;BME280;49700;48.072;7.800;2023-12-20T12:52:34;100001.72;;;8.74;nan
63556;BME280;49700;48.072;7.800;2023-12-20T12:55:01;99996.59;;;8.72;nan
63556;BME280;49700;48.072;7.800;2023-12-20T12:57:26;100002.81;;;8.70;nan
63556;BME280;49700;48.072;7.800;2023-12-20T12:59:52;100004.66;;;8.68;nan
63556;BME280;49700;48.072;7.800;2023-12-20T13:02:17;99993.34;;;8.67;nan
63556;BME280;49700;48.072;7.800;2023-12-20T13:04:43;99990.78;;;8.66;nan
63556;BME280;49700;48.072;7.800;2023-12-20T13:07:09;99991.72;;;8.64;nan
63556;BME280;49700;48.072;7.800;2023-12-20T13:09:38;99988.22;;;8.64;nan
63556;BME280;49700;48.072;7.800;2023-12-20T13:12:04;99994.41;;;8.63;nan
63556;BME280;49700;48.072;7.800;2023-12-20T13:14:33;99985.78;;;8.61;nan
63556;BME280;49700;48.072;7.800;2023-12-20T13:17:14;99987.56;;;8.60;nan
63556;BME280;49700;48.072;7.800;2023-12-20T13:19:40;99994.50;;;8.61;nan
63556;BME280;49700;48.072;7.800;2023-12-20T13:22:06;99992.72;;;8.62;nan
63556;BME280;49700;48.072;7.800;2023-12-20T13:24:31;99981.25;;;8.64;nan
63556;BME280;49700;48.072;7.800;2023-12-20T13:26:57;99974.28;;;8.63;nan
63556;BME280;49700;48.072;7.800;2023-12-20T13:29:24;99989.84;;;8.67;nan
63556;BME280;49700;48.072;7.800;2023-12-20T13:31:49;99973.25;;;8.68;nan
63556;BME280;49700;48.072;7.800;2023-12-20T13:34:15;99973.25;;;8.68;nan